sensor_id;sensor_type;location;lat;lon;timestamp;P1;durP1;ratioP1;P2;durP2;ratioP2
25439;SDS011;13365;52.208;5.488;2024-01-07T00:00:15;21.77;;;11.50;;
25439;SDS011;13365;52.208;5.488;2024-01-07T00:02:41;23.50;;;11.68;;
25439;SDS011;13365;52.208;5.488;2024-01-07T00:05:07;23.42;;;13.05;;
25439;SDS011;13365;52.208;5.488;2024-01-07T00:07:33;22.95;;;12.10;;
25439;SDS011;13365;52.208;5.488;2024-01-07T00:09:58;20.90;;;10.98;;
25439;SDS011;13365;52.208;5.488;2024-01-07T00:12:24;21.02;;;11.45;;
25439;SDS011;13365;52.208;5.488;2024-01-07T00:14:50;21.38;;;11.45;;
25439;SDS011;13365;52.208;5.488;2024-01-07T00:17:16;22.25;;;11.63;;
25439;SDS011;13365;52.208;5.488;2024-01-07T00:19:41;21.40;;;11.60;;
25439;SDS011;13365;52.208;5.488;2024-01-07T00:22:07;18.83;;;11.07;;
25439;SDS011;13365;52.208;5.488;2024-01-07T00:24:33;21.85;;;11.13;;
25439;SDS011;13365;52.208;5.488;2024-01-07T00:26:58;19.45;;;11.43;;
25439;SDS011;13365;52.208;5.488;2024-01-07T00:29:24;18.30;;;10.70;;
25439;SDS011;13365;52.208;5.488;2024-01-07T00:31:52;18.48;;;11.07;;
25439;SDS011;13365;52.208;5.488;2024-01-07T00:34:17;21.88;;;10.95;;
25439;SDS011;13365;52.208;5.488;2024-01-07T00:36:45;19.48;;;10.02;;
25439;SDS011;13365;52.208;5.488;2024-01-07T00:39:11;24.08;;;11.57;;
25439;SDS011;13365;52.208;5.488;2024-01-07T00:41:37;22.25;;;11.23;;
25439;SDS011;13365;52.208;5.488;2024-01-07T00:44:02;20.65;;;11.20;;
25439;SDS011;13365;52.208;5.488;2024-01-07T00:46:28;17.77;;;10.15;;
25439;SDS011;13365;52.208;5.488;2024-01-07T00:48:53;20.10;;;11.38;;
25439;SDS011;13365;52.208;5.488;2024-01-07T00:51:21;23.73;;;11.82;;
25439;SDS011;13365;52.208;5.488;2024-01-07T00:53:47;21.50;;;11.60;;
25439;SDS011;13365;52.208;5.488;2024-01-07T00:56:13;19.73;;;11.23;;
25439;SDS011;13365;52.208;5.488;2024-01-07T00:58:38;21.10;;;11.55;;
25439;SDS011;13365;52.208;5.488;2024-01-07T01:01:05;20.55;;;11.00;;
25439;SDS011;13365;52.208;5.488;2024-01-07T01:03:30;20.88;;;12.05;;
25439;SDS011;13365;52.208;5.488;2024-01-07T01:05:56;21.27;;;11.55;;
25439;SDS011;13365;52.208;5.488;2024-01-07T01:08:22;23.52;;;12.15;;
25439;SDS011;13365;52.208;5.488;2024-01-07T01:10:48;23.73;;;12.63;;
25439;SDS011;13365;52.208;5.488;2024-01-07T01:13:13;27.75;;;12.93;;
25439;SDS011;13365;52.208;5.488;2024-01-07T01:15:41;23.25;;;11.90;;
25439;SDS011;13365;52.208;5.488;2024-01-07T01:18:07;25.42;;;12.32;;
25439;SDS011;13365;52.208;5.488;2024-01-07T01:20:33;24.00;;;12.98;;
25439;SDS011;13365;52.208;5.488;2024-01-07T01:22:58;24.90;;;13.55;;
25439;SDS011;13365;52.208;5.488;2024-01-07T01:25:24;24.20;;;13.75;;
25439;SDS011;13365;52.208;5.488;2024-01-07T01:27:49;26.60;;;13.48;;
25439;SDS011;13365;52.208;5.488;2024-01-07T01:30:15;28.90;;;13.45;;
25439;SDS011;13365;52.208;5.488;2024-01-07T01:32:41;26.23;;;12.82;;
25439;SDS011;13365;52.208;5.488;2024-01-07T01:35:07;24.45;;;13.85;;
25439;SDS011;13365;52.208;5.488;2024-01-07T01:37:33;28.48;;;14.20;;
25439;SDS011;13365;52.208;5.488;2024-01-07T01:39:59;23.35;;;12.65;;
25439;SDS011;13365;52.208;5.488;2024-01-07T01:42:24;29.35;;;14.27;;
25439;SDS011;13365;52.208;5.488;2024-01-07T01:44:50;29.00;;;13.25;;
25439;SDS011;13365;52.208;5.488;2024-01-07T01:47:17;31.73;;;15.40;;
25439;SDS011;13365;52.208;5.488;2024-01-07T01:49:43;30.92;;;14.50;;
25439;SDS011;13365;52.208;5.488;2024-01-07T01:52:10;29.10;;;14.23;;
25439;SDS011;13365;52.208;5.488;2024-01-07T01:54:37;28.55;;;13.40;;
25439;SDS011;13365;52.208;5.488;2024-01-07T01:57:03;26.35;;;14.43;;
25439;SDS011;13365;52.208;5.488;2024-01-07T01:59:29;28.00;;;14.23;;
25439;SDS011;13365;52.208;5.488;2024-01-07T02:01:56;28.70;;;15.27;;
25439;SDS011;13365;52.208;5.488;2024-01-07T02:04:22;31.27;;;15.82;;
25439;SDS011;13365;52.208;5.488;2024-01-07T02:06:47;34.78;;;17.02;;
25439;SDS011;13365;52.208;5.488;2024-01-07T02:09:13;34.55;;;17.38;;
25439;SDS011;13365;52.208;5.488;2024-01-07T02:11:38;32.38;;;16.13;;
25439;SDS011;13365;52.208;5.488;2024-01-07T02:14:04;31.48;;;15.80;;
25439;SDS011;13365;52.208;5.488;2024-01-07T02:16:30;37.33;;;17.58;;
25439;SDS011;13365;52.208;5.488;2024-01-07T02:18:55;33.50;;;16.45;;
25439;SDS011;13365;52.208;5.488;2024-01-07T02:21:21;32.20;;;15.73;;
25439;SDS011;13365;52.208;5.488;2024-01-07T02:23:46;37.22;;;17.15;;
25439;SDS011;13365;52.208;5.488;2024-01-07T02:26:12;30.80;;;16.17;;
25439;SDS011;13365;52.208;5.488;2024-01-07T02:28:38;27.15;;;14.95;;
25439;SDS011;13365;52.208;5.488;2024-01-07T02:31:03;26.63;;;13.38;;
25439;SDS011;13365;52.208;5.488;2024-01-07T02:33:29;28.85;;;14.73;;
25439;SDS011;13365;52.208;5.488;2024-01-07T02:35:55;29.77;;;16.05;;
25439;SDS011;13365;52.208;5.488;2024-01-07T02:38:22;29.23;;;14.43;;
25439;SDS011;13365;52.208;5.488;2024-01-07T02:40:48;26.02;;;13.85;;
25439;SDS011;13365;52.208;5.488;2024-01-07T02:43:14;29.58;;;14.43;;
25439;SDS011;13365;52.208;5.488;2024-01-07T02:45:39;27.63;;;12.50;;
25439;SDS011;13365;52.208;5.488;2024-01-07T02:48:05;28.58;;;14.55;;
25439;SDS011;13365;52.208;5.488;2024-01-07T02:50:32;32.00;;;15.30;;
25439;SDS011;13365;52.208;5.488;2024-01-07T02:52:58;28.83;;;14.32;;
25439;SDS011;13365;52.208;5.488;2024-01-07T02:55:23;23.73;;;13.05;;
25439;SDS011;13365;52.208;5.488;2024-01-07T02:57:49;28.65;;;14.57;;
25439;SDS011;13365;52.208;5.488;2024-01-07T03:00:14;24.30;;;13.60;;
25439;SDS011;13365;52.208;5.488;2024-01-07T03:02:40;24.60;;;14.80;;
25439;SDS011;13365;52.208;5.488;2024-01-07T03:05:06;23.85;;;13.20;;
25439;SDS011;13365;52.208;5.488;2024-01-07T03:07:32;29.88;;;14.27;;
25439;SDS011;13365;52.208;5.488;2024-01-07T03:09:59;24.83;;;13.27;;
25439;SDS011;13365;52.208;5.488;2024-01-07T03:12:24;26.30;;;13.75;;
25439;SDS011;13365;52.208;5.488;2024-01-07T03:14:50;28.60;;;14.38;;
25439;SDS011;13365;52.208;5.488;2024-01-07T03:17:15;25.73;;;13.63;;
25439;SDS011;13365;52.208;5.488;2024-01-07T03:19:42;27.55;;;13.45;;
25439;SDS011;13365;52.208;5.488;2024-01-07T03:22:08;32.60;;;15.27;;
25439;SDS011;13365;52.208;5.488;2024-01-07T03:24:33;27.05;;;14.63;;
25439;SDS011;13365;52.208;5.488;2024-01-07T03:26:59;28.95;;;14.15;;
25439;SDS011;13365;52.208;5.488;2024-01-07T03:29:25;29.77;;;14.27;;
25439;SDS011;13365;52.208;5.488;2024-01-07T03:31:50;27.58;;;13.95;;
25439;SDS011;13365;52.208;5.488;2024-01-07T03:34:17;24.33;;;13.18;;
25439;SDS011;13365;52.208;5.488;2024-01-07T03:36:43;28.02;;;14.55;;
25439;SDS011;13365;52.208;5.488;2024-01-07T03:39:09;31.10;;;14.45;;
25439;SDS011;13365;52.208;5.488;2024-01-07T03:41:35;32.25;;;15.10;;
25439;SDS011;13365;52.208;5.488;2024-01-07T03:44:00;36.47;;;15.65;;
25439;SDS011;13365;52.208;5.488;2024-01-07T03:46:26;32.75;;;15.25;;
25439;SDS011;13365;52.208;5.488;2024-01-07T03:48:51;35.10;;;16.85;;
25439;SDS011;13365;52.208;5.488;2024-01-07T03:51:17;31.33;;;15.82;;
25439;SDS011;13365;52.208;5.488;2024-01-07T03:53:42;33.75;;;16.98;;
25439;SDS011;13365;52.208;5.488;2024-01-07T03:56:08;34.30;;;16.33;;
25439;SDS011;13365;52.208;5.488;2024-01-07T03:58:34;31.42;;;16.42;;
25439;SDS011;13365;52.208;5.488;2024-01-07T04:01:00;37.35;;;16.95;;
25439;SDS011;13365;52.208;5.488;2024-01-07T04:03:26;30.52;;;17.05;;
25439;SDS011;13365;52.208;5.488;2024-01-07T04:05:51;34.17;;;16.80;;
25439;SDS011;13365;52.208;5.488;2024-01-07T04:08:17;30.95;;;15.20;;
25439;SDS011;13365;52.208;5.488;2024-01-07T04:10:43;29.67;;;15.60;;
25439;SDS011;13365;52.208;5.488;2024-01-07T04:13:08;32.92;;;15.40;;
25439;SDS011;13365;52.208;5.488;2024-01-07T04:15:35;29.15;;;14.35;;
25439;SDS011;13365;52.208;5.488;2024-01-07T04:18:01;28.48;;;13.90;;
25439;SDS011;13365;52.208;5.488;2024-01-07T04:20:30;28.02;;;14.00;;
25439;SDS011;13365;52.208;5.488;2024-01-07T04:22:56;24.80;;;12.63;;
25439;SDS011;13365;52.208;5.488;2024-01-07T04:25:23;24.15;;;13.77;;
25439;SDS011;13365;52.208;5.488;2024-01-07T04:27:49;26.33;;;13.48;;
25439;SDS011;13365;52.208;5.488;2024-01-07T04:30:14;26.38;;;13.43;;
25439;SDS011;13365;52.208;5.488;2024-01-07T04:32:42;22.65;;;13.38;;
25439;SDS011;13365;52.208;5.488;2024-01-07T04:35:08;25.35;;;13.60;;
25439;SDS011;13365;52.208;5.488;2024-01-07T04:37:35;25.63;;;12.55;;
25439;SDS011;13365;52.208;5.488;2024-01-07T04:40:00;25.48;;;12.05;;
25439;SDS011;13365;52.208;5.488;2024-01-07T04:42:27;23.00;;;12.45;;
25439;SDS011;13365;52.208;5.488;2024-01-07T04:44:52;24.95;;;12.13;;
25439;SDS011;13365;52.208;5.488;2024-01-07T04:47:31;24.65;;;12.35;;
25439;SDS011;13365;52.208;5.488;2024-01-07T04:50:01;19.95;;;10.90;;
25439;SDS011;13365;52.208;5.488;2024-01-07T04:52:27;20.25;;;11.75;;
25439;SDS011;13365;52.208;5.488;2024-01-07T04:54:53;19.80;;;11.05;;
25439;SDS011;13365;52.208;5.488;2024-01-07T04:57:19;18.70;;;11.32;;
25439;SDS011;13365;52.208;5.488;2024-01-07T04:59:45;21.13;;;11.32;;
25439;SDS011;13365;52.208;5.488;2024-01-07T05:02:11;24.33;;;11.95;;
25439;SDS011;13365;52.208;5.488;2024-01-07T05:04:37;27.10;;;11.27;;
25439;SDS011;13365;52.208;5.488;2024-01-07T05:07:03;21.15;;;10.95;;
25439;SDS011;13365;52.208;5.488;2024-01-07T05:09:29;24.30;;;11.63;;
25439;SDS011;13365;52.208;5.488;2024-01-07T05:11:56;18.25;;;10.65;;
25439;SDS011;13365;52.208;5.488;2024-01-07T05:14:21;19.73;;;11.63;;
25439;SDS011;13365;52.208;5.488;2024-01-07T05:16:47;19.50;;;11.77;;
25439;SDS011;13365;52.208;5.488;2024-01-07T05:19:13;21.30;;;11.57;;
25439;SDS011;13365;52.208;5.488;2024-01-07T05:21:39;25.02;;;11.75;;
25439;SDS011;13365;52.208;5.488;2024-01-07T05:24:04;17.38;;;10.45;;
25439;SDS011;13365;52.208;5.488;2024-01-07T05:26:30;19.10;;;10.25;;
25439;SDS011;13365;52.208;5.488;2024-01-07T05:28:56;21.55;;;11.40;;
25439;SDS011;13365;52.208;5.488;2024-01-07T05:31:21;23.00;;;11.07;;
25439;SDS011;13365;52.208;5.488;2024-01-07T05:33:47;22.67;;;12.32;;
25439;SDS011;13365;52.208;5.488;2024-01-07T05:36:13;18.70;;;10.68;;
25439;SDS011;13365;52.208;5.488;2024-01-07T05:38:41;20.85;;;11.45;;
25439;SDS011;13365;52.208;5.488;2024-01-07T05:41:06;17.60;;;11.52;;
25439;SDS011;13365;52.208;5.488;2024-01-07T05:43:32;20.38;;;10.65;;
25439;SDS011;13365;52.208;5.488;2024-01-07T05:45:57;27.05;;;11.40;;
25439;SDS011;13365;52.208;5.488;2024-01-07T05:48:23;21.50;;;11.27;;
25439;SDS011;13365;52.208;5.488;2024-01-07T05:50:49;23.33;;;12.52;;
25439;SDS011;13365;52.208;5.488;2024-01-07T05:53:15;19.95;;;11.25;;
25439;SDS011;13365;52.208;5.488;2024-01-07T05:55:42;22.52;;;12.48;;
25439;SDS011;13365;52.208;5.488;2024-01-07T05:58:07;23.13;;;11.98;;
25439;SDS011;13365;52.208;5.488;2024-01-07T06:00:33;21.92;;;10.35;;
25439;SDS011;13365;52.208;5.488;2024-01-07T06:02:59;18.77;;;11.07;;
25439;SDS011;13365;52.208;5.488;2024-01-07T06:05:25;18.98;;;10.43;;
25439;SDS011;13365;52.208;5.488;2024-01-07T06:07:51;20.60;;;9.95;;
25439;SDS011;13365;52.208;5.488;2024-01-07T06:10:16;17.67;;;9.07;;
25439;SDS011;13365;52.208;5.488;2024-01-07T06:12:42;13.80;;;8.32;;
25439;SDS011;13365;52.208;5.488;2024-01-07T06:15:08;15.85;;;9.63;;
25439;SDS011;13365;52.208;5.488;2024-01-07T06:17:34;17.70;;;9.30;;
25439;SDS011;13365;52.208;5.488;2024-01-07T06:19:59;17.45;;;10.00;;
25439;SDS011;13365;52.208;5.488;2024-01-07T06:22:25;17.85;;;10.48;;
25439;SDS011;13365;52.208;5.488;2024-01-07T06:24:50;20.75;;;9.93;;
25439;SDS011;13365;52.208;5.488;2024-01-07T06:27:16;21.13;;;10.77;;
25439;SDS011;13365;52.208;5.488;2024-01-07T06:29:41;16.90;;;9.55;;
25439;SDS011;13365;52.208;5.488;2024-01-07T06:32:07;18.95;;;11.23;;
25439;SDS011;13365;52.208;5.488;2024-01-07T06:34:34;18.65;;;10.25;;
25439;SDS011;13365;52.208;5.488;2024-01-07T06:37:00;18.00;;;10.00;;
25439;SDS011;13365;52.208;5.488;2024-01-07T06:39:26;22.10;;;11.00;;
25439;SDS011;13365;52.208;5.488;2024-01-07T06:41:52;16.80;;;9.93;;
25439;SDS011;13365;52.208;5.488;2024-01-07T06:44:18;18.98;;;10.13;;
25439;SDS011;13365;52.208;5.488;2024-01-07T06:46:43;21.98;;;11.02;;
25439;SDS011;13365;52.208;5.488;2024-01-07T06:49:09;18.92;;;10.82;;
25439;SDS011;13365;52.208;5.488;2024-01-07T06:51:35;18.27;;;10.95;;
25439;SDS011;13365;52.208;5.488;2024-01-07T06:54:00;21.38;;;11.30;;
25439;SDS011;13365;52.208;5.488;2024-01-07T06:56:26;19.55;;;10.60;;
25439;SDS011;13365;52.208;5.488;2024-01-07T06:58:51;17.60;;;10.48;;
25439;SDS011;13365;52.208;5.488;2024-01-07T07:01:19;16.50;;;8.38;;
25439;SDS011;13365;52.208;5.488;2024-01-07T07:03:45;19.02;;;10.88;;
25439;SDS011;13365;52.208;5.488;2024-01-07T07:06:11;19.25;;;10.73;;
25439;SDS011;13365;52.208;5.488;2024-01-07T07:08:37;22.42;;;10.73;;
25439;SDS011;13365;52.208;5.488;2024-01-07T07:11:03;19.55;;;10.50;;
25439;SDS011;13365;52.208;5.488;2024-01-07T07:13:29;19.20;;;11.23;;
25439;SDS011;13365;52.208;5.488;2024-01-07T07:15:54;18.27;;;10.85;;
25439;SDS011;13365;52.208;5.488;2024-01-07T07:18:20;17.25;;;9.65;;
25439;SDS011;13365;52.208;5.488;2024-01-07T07:20:45;17.80;;;10.00;;
25439;SDS011;13365;52.208;5.488;2024-01-07T07:23:11;19.83;;;10.52;;
25439;SDS011;13365;52.208;5.488;2024-01-07T07:25:37;20.63;;;9.90;;
25439;SDS011;13365;52.208;5.488;2024-01-07T07:28:02;17.92;;;10.13;;
25439;SDS011;13365;52.208;5.488;2024-01-07T07:30:28;19.23;;;11.25;;
25439;SDS011;13365;52.208;5.488;2024-01-07T07:32:55;19.65;;;10.57;;
25439;SDS011;13365;52.208;5.488;2024-01-07T07:35:20;16.50;;;9.40;;
25439;SDS011;13365;52.208;5.488;2024-01-07T07:37:46;15.45;;;8.95;;
25439;SDS011;13365;52.208;5.488;2024-01-07T07:40:12;15.50;;;8.38;;
25439;SDS011;13365;52.208;5.488;2024-01-07T07:42:38;19.23;;;9.93;;
25439;SDS011;13365;52.208;5.488;2024-01-07T07:45:04;17.58;;;9.45;;
25439;SDS011;13365;52.208;5.488;2024-01-07T07:47:30;14.82;;;9.18;;
25439;SDS011;13365;52.208;5.488;2024-01-07T07:49:56;16.85;;;9.98;;
25439;SDS011;13365;52.208;5.488;2024-01-07T07:52:22;15.18;;;9.70;;
25439;SDS011;13365;52.208;5.488;2024-01-07T07:54:50;19.15;;;10.23;;
25439;SDS011;13365;52.208;5.488;2024-01-07T07:57:16;21.73;;;9.00;;
25439;SDS011;13365;52.208;5.488;2024-01-07T07:59:42;17.05;;;9.52;;
25439;SDS011;13365;52.208;5.488;2024-01-07T08:02:08;20.90;;;10.20;;
25439;SDS011;13365;52.208;5.488;2024-01-07T08:04:33;14.85;;;9.57;;
25439;SDS011;13365;52.208;5.488;2024-01-07T08:06:59;16.85;;;10.18;;
25439;SDS011;13365;52.208;5.488;2024-01-07T08:09:25;17.88;;;9.52;;
25439;SDS011;13365;52.208;5.488;2024-01-07T08:11:51;16.52;;;9.95;;
25439;SDS011;13365;52.208;5.488;2024-01-07T08:14:17;14.57;;;7.60;;
25439;SDS011;13365;52.208;5.488;2024-01-07T08:16:42;17.15;;;9.15;;
25439;SDS011;13365;52.208;5.488;2024-01-07T08:19:08;14.73;;;9.00;;
25439;SDS011;13365;52.208;5.488;2024-01-07T08:21:34;15.13;;;9.52;;
25439;SDS011;13365;52.208;5.488;2024-01-07T08:24:00;14.50;;;9.23;;
25439;SDS011;13365;52.208;5.488;2024-01-07T08:26:26;17.38;;;9.85;;
25439;SDS011;13365;52.208;5.488;2024-01-07T08:28:51;15.00;;;8.40;;
25439;SDS011;13365;52.208;5.488;2024-01-07T08:31:18;18.52;;;10.00;;
25439;SDS011;13365;52.208;5.488;2024-01-07T08:33:44;16.42;;;8.57;;
25439;SDS011;13365;52.208;5.488;2024-01-07T08:36:13;14.25;;;7.57;;
25439;SDS011;13365;52.208;5.488;2024-01-07T08:38:38;13.00;;;7.70;;
25439;SDS011;13365;52.208;5.488;2024-01-07T08:41:04;11.75;;;6.45;;
25439;SDS011;13365;52.208;5.488;2024-01-07T08:43:30;15.88;;;8.07;;
25439;SDS011;13365;52.208;5.488;2024-01-07T08:45:57;17.08;;;8.05;;
25439;SDS011;13365;52.208;5.488;2024-01-07T08:48:22;11.55;;;7.38;;
25439;SDS011;13365;52.208;5.488;2024-01-07T08:50:48;16.05;;;8.40;;
25439;SDS011;13365;52.208;5.488;2024-01-07T08:53:15;16.60;;;9.10;;
25439;SDS011;13365;52.208;5.488;2024-01-07T08:55:40;14.90;;;8.43;;
25439;SDS011;13365;52.208;5.488;2024-01-07T08:58:07;13.18;;;8.07;;
25439;SDS011;13365;52.208;5.488;2024-01-07T09:00:33;14.93;;;8.95;;
25439;SDS011;13365;52.208;5.488;2024-01-07T09:02:59;14.45;;;8.02;;
25439;SDS011;13365;52.208;5.488;2024-01-07T09:05:24;14.45;;;7.80;;
25439;SDS011;13365;52.208;5.488;2024-01-07T09:07:50;10.88;;;6.82;;
25439;SDS011;13365;52.208;5.488;2024-01-07T09:10:16;16.25;;;7.68;;
25439;SDS011;13365;52.208;5.488;2024-01-07T09:12:45;13.05;;;7.07;;
25439;SDS011;13365;52.208;5.488;2024-01-07T09:15:11;18.52;;;8.32;;
25439;SDS011;13365;52.208;5.488;2024-01-07T09:17:37;16.45;;;8.25;;
25439;SDS011;13365;52.208;5.488;2024-01-07T09:20:07;12.43;;;7.95;;
25439;SDS011;13365;52.208;5.488;2024-01-07T09:22:33;10.30;;;6.13;;
25439;SDS011;13365;52.208;5.488;2024-01-07T09:25:01;12.98;;;7.35;;
25439;SDS011;13365;52.208;5.488;2024-01-07T09:27:30;10.25;;;5.97;;
25439;SDS011;13365;52.208;5.488;2024-01-07T09:29:57;11.73;;;6.28;;
25439;SDS011;13365;52.208;5.488;2024-01-07T09:32:24;9.55;;;6.10;;
25439;SDS011;13365;52.208;5.488;2024-01-07T09:34:50;12.82;;;6.70;;
25439;SDS011;13365;52.208;5.488;2024-01-07T09:37:16;12.30;;;6.53;;
25439;SDS011;13365;52.208;5.488;2024-01-07T09:39:42;9.82;;;5.25;;
25439;SDS011;13365;52.208;5.488;2024-01-07T09:42:18;7.60;;;5.53;;
25439;SDS011;13365;52.208;5.488;2024-01-07T09:44:44;11.02;;;5.80;;
25439;SDS011;13365;52.208;5.488;2024-01-07T09:47:11;10.73;;;4.97;;
25439;SDS011;13365;52.208;5.488;2024-01-07T09:49:37;10.35;;;5.43;;
25439;SDS011;13365;52.208;5.488;2024-01-07T09:52:11;8.35;;;4.55;;
25439;SDS011;13365;52.208;5.488;2024-01-07T09:54:38;9.27;;;4.80;;
25439;SDS011;13365;52.208;5.488;2024-01-07T09:57:05;9.15;;;4.55;;
25439;SDS011;13365;52.208;5.488;2024-01-07T09:59:35;8.48;;;4.43;;
25439;SDS011;13365;52.208;5.488;2024-01-07T10:02:04;9.70;;;4.40;;
25439;SDS011;13365;52.208;5.488;2024-01-07T10:04:29;7.70;;;4.00;;
25439;SDS011;13365;52.208;5.488;2024-01-07T10:06:56;8.23;;;4.13;;
25439;SDS011;13365;52.208;5.488;2024-01-07T10:09:22;7.43;;;3.92;;
25439;SDS011;13365;52.208;5.488;2024-01-07T10:11:49;7.35;;;4.00;;
25439;SDS011;13365;52.208;5.488;2024-01-07T10:14:15;6.25;;;3.90;;
25439;SDS011;13365;52.208;5.488;2024-01-07T10:16:40;6.13;;;3.00;;
25439;SDS011;13365;52.208;5.488;2024-01-07T10:19:06;7.43;;;3.60;;
25439;SDS011;13365;52.208;5.488;2024-01-07T10:21:32;7.38;;;3.67;;
25439;SDS011;13365;52.208;5.488;2024-01-07T10:24:11;6.32;;;3.33;;
25439;SDS011;13365;52.208;5.488;2024-01-07T10:26:37;6.30;;;2.92;;
25439;SDS011;13365;52.208;5.488;2024-01-07T10:29:03;6.03;;;3.22;;
25439;SDS011;13365;52.208;5.488;2024-01-07T10:31:29;6.03;;;3.10;;
25439;SDS011;13365;52.208;5.488;2024-01-07T10:33:56;6.80;;;3.13;;
25439;SDS011;13365;52.208;5.488;2024-01-07T10:36:22;5.95;;;2.80;;
25439;SDS011;13365;52.208;5.488;2024-01-07T10:38:49;7.32;;;3.45;;
25439;SDS011;13365;52.208;5.488;2024-01-07T10:41:19;5.15;;;2.33;;
25439;SDS011;13365;52.208;5.488;2024-01-07T10:43:48;5.00;;;2.58;;
25439;SDS011;13365;52.208;5.488;2024-01-07T10:46:15;7.68;;;2.42;;
25439;SDS011;13365;52.208;5.488;2024-01-07T10:48:54;4.28;;;2.42;;
25439;SDS011;13365;52.208;5.488;2024-01-07T10:51:23;8.95;;;2.60;;
25439;SDS011;13365;52.208;5.488;2024-01-07T10:53:52;6.80;;;2.58;;
25439;SDS011;13365;52.208;5.488;2024-01-07T10:56:24;4.78;;;2.67;;
25439;SDS011;13365;52.208;5.488;2024-01-07T10:58:53;4.88;;;2.65;;
25439;SDS011;13365;52.208;5.488;2024-01-07T11:01:20;9.90;;;3.00;;
25439;SDS011;13365;52.208;5.488;2024-01-07T11:04:04;5.53;;;2.80;;
25439;SDS011;13365;52.208;5.488;2024-01-07T11:06:57;5.68;;;2.63;;
25439;SDS011;13365;52.208;5.488;2024-01-07T11:09:39;6.50;;;2.60;;
25439;SDS011;13365;52.208;5.488;2024-01-07T11:12:11;6.47;;;2.13;;
25439;SDS011;13365;52.208;5.488;2024-01-07T11:14:41;6.45;;;2.30;;
25439;SDS011;13365;52.208;5.488;2024-01-07T11:17:10;5.40;;;2.60;;
25439;SDS011;13365;52.208;5.488;2024-01-07T11:19:38;5.60;;;2.75;;
25439;SDS011;13365;52.208;5.488;2024-01-07T11:22:26;5.38;;;2.45;;
25439;SDS011;13365;52.208;5.488;2024-01-07T11:24:54;3.90;;;2.20;;
25439;SDS011;13365;52.208;5.488;2024-01-07T11:27:26;3.85;;;2.00;;
25439;SDS011;13365;52.208;5.488;2024-01-07T11:29:56;4.22;;;2.13;;
25439;SDS011;13365;52.208;5.488;2024-01-07T11:32:23;4.53;;;2.60;;
25439;SDS011;13365;52.208;5.488;2024-01-07T11:34:53;5.03;;;1.67;;
25439;SDS011;13365;52.208;5.488;2024-01-07T11:37:21;3.42;;;1.67;;
25439;SDS011;13365;52.208;5.488;2024-01-07T11:39:48;4.68;;;1.67;;
25439;SDS011;13365;52.208;5.488;2024-01-07T11:42:15;3.30;;;1.90;;
25439;SDS011;13365;52.208;5.488;2024-01-07T11:44:54;3.67;;;1.80;;
25439;SDS011;13365;52.208;5.488;2024-01-07T11:47:21;3.22;;;1.63;;
25439;SDS011;13365;52.208;5.488;2024-01-07T11:49:48;2.13;;;1.45;;
25439;SDS011;13365;52.208;5.488;2024-01-07T11:52:17;3.35;;;1.77;;
25439;SDS011;13365;52.208;5.488;2024-01-07T11:54:43;2.92;;;1.25;;
25439;SDS011;13365;52.208;5.488;2024-01-07T11:57:09;3.70;;;1.85;;
25439;SDS011;13365;52.208;5.488;2024-01-07T11:59:35;3.25;;;1.60;;
25439;SDS011;13365;52.208;5.488;2024-01-07T12:02:02;2.63;;;1.15;;
25439;SDS011;13365;52.208;5.488;2024-01-07T12:04:32;1.77;;;1.13;;
25439;SDS011;13365;52.208;5.488;2024-01-07T12:06:58;2.35;;;1.42;;
25439;SDS011;13365;52.208;5.488;2024-01-07T12:09:27;3.15;;;1.52;;
25439;SDS011;13365;52.208;5.488;2024-01-07T12:11:52;3.53;;;1.55;;
25439;SDS011;13365;52.208;5.488;2024-01-07T12:14:18;4.53;;;1.60;;
25439;SDS011;13365;52.208;5.488;2024-01-07T12:16:45;2.92;;;1.42;;
25439;SDS011;13365;52.208;5.488;2024-01-07T12:19:11;3.33;;;1.52;;
25439;SDS011;13365;52.208;5.488;2024-01-07T12:21:37;2.47;;;1.27;;
25439;SDS011;13365;52.208;5.488;2024-01-07T12:24:03;2.50;;;1.60;;
25439;SDS011;13365;52.208;5.488;2024-01-07T12:26:29;3.92;;;1.70;;
25439;SDS011;13365;52.208;5.488;2024-01-07T12:28:57;2.90;;;1.60;;
25439;SDS011;13365;52.208;5.488;2024-01-07T12:31:27;3.17;;;1.63;;
25439;SDS011;13365;52.208;5.488;2024-01-07T12:33:54;2.38;;;1.25;;
25439;SDS011;13365;52.208;5.488;2024-01-07T12:36:21;2.20;;;1.35;;
25439;SDS011;13365;52.208;5.488;2024-01-07T12:38:50;2.90;;;1.17;;
25439;SDS011;13365;52.208;5.488;2024-01-07T12:41:19;2.83;;;1.20;;
25439;SDS011;13365;52.208;5.488;2024-01-07T12:43:45;1.77;;;1.35;;
25439;SDS011;13365;52.208;5.488;2024-01-07T12:46:10;2.35;;;1.25;;
25439;SDS011;13365;52.208;5.488;2024-01-07T12:48:39;2.38;;;1.38;;
25439;SDS011;13365;52.208;5.488;2024-01-07T12:51:05;4.28;;;1.48;;
25439;SDS011;13365;52.208;5.488;2024-01-07T12:53:30;3.47;;;1.20;;
25439;SDS011;13365;52.208;5.488;2024-01-07T12:55:56;1.98;;;1.15;;
25439;SDS011;13365;52.208;5.488;2024-01-07T12:58:21;4.88;;;1.45;;
25439;SDS011;13365;52.208;5.488;2024-01-07T13:00:47;2.88;;;1.20;;
25439;SDS011;13365;52.208;5.488;2024-01-07T13:03:12;1.52;;;1.02;;
25439;SDS011;13365;52.208;5.488;2024-01-07T13:05:42;3.25;;;1.10;;
25439;SDS011;13365;52.208;5.488;2024-01-07T13:08:08;2.75;;;1.13;;
25439;SDS011;13365;52.208;5.488;2024-01-07T13:10:34;2.13;;;1.00;;
25439;SDS011;13365;52.208;5.488;2024-01-07T13:13:00;1.77;;;1.08;;
25439;SDS011;13365;52.208;5.488;2024-01-07T13:15:25;1.85;;;1.02;;
25439;SDS011;13365;52.208;5.488;2024-01-07T13:17:51;2.92;;;1.27;;
25439;SDS011;13365;52.208;5.488;2024-01-07T13:20:16;10.27;;;1.58;;
25439;SDS011;13365;52.208;5.488;2024-01-07T13:22:45;1.75;;;1.13;;
25439;SDS011;13365;52.208;5.488;2024-01-07T13:25:11;2.65;;;1.65;;
25439;SDS011;13365;52.208;5.488;2024-01-07T13:27:37;2.65;;;1.00;;
25439;SDS011;13365;52.208;5.488;2024-01-07T13:30:03;2.38;;;1.30;;
25439;SDS011;13365;52.208;5.488;2024-01-07T13:32:29;3.33;;;1.40;;
25439;SDS011;13365;52.208;5.488;2024-01-07T13:34:55;2.80;;;1.08;;
25439;SDS011;13365;52.208;5.488;2024-01-07T13:37:21;2.65;;;1.25;;
25439;SDS011;13365;52.208;5.488;2024-01-07T13:39:46;0.73;;;0.65;;
25439;SDS011;13365;52.208;5.488;2024-01-07T13:42:14;2.58;;;1.15;;
25439;SDS011;13365;52.208;5.488;2024-01-07T13:44:40;1.67;;;0.80;;
25439;SDS011;13365;52.208;5.488;2024-01-07T13:47:11;2.58;;;1.30;;
25439;SDS011;13365;52.208;5.488;2024-01-07T13:49:39;3.08;;;1.58;;
25439;SDS011;13365;52.208;5.488;2024-01-07T13:52:05;3.20;;;1.33;;
25439;SDS011;13365;52.208;5.488;2024-01-07T13:54:30;3.25;;;1.33;;
25439;SDS011;13365;52.208;5.488;2024-01-07T13:56:56;3.63;;;1.15;;
25439;SDS011;13365;52.208;5.488;2024-01-07T13:59:21;3.67;;;1.27;;
25439;SDS011;13365;52.208;5.488;2024-01-07T14:01:48;3.03;;;1.00;;
25439;SDS011;13365;52.208;5.488;2024-01-07T14:04:14;2.08;;;1.00;;
25439;SDS011;13365;52.208;5.488;2024-01-07T14:06:40;3.92;;;0.90;;
25439;SDS011;13365;52.208;5.488;2024-01-07T14:09:06;2.40;;;1.42;;
25439;SDS011;13365;52.208;5.488;2024-01-07T14:11:33;2.13;;;1.38;;
25439;SDS011;13365;52.208;5.488;2024-01-07T14:13:59;2.67;;;1.38;;
25439;SDS011;13365;52.208;5.488;2024-01-07T14:16:26;3.63;;;1.80;;
25439;SDS011;13365;52.208;5.488;2024-01-07T14:18:51;4.57;;;1.35;;
25439;SDS011;13365;52.208;5.488;2024-01-07T14:21:17;3.67;;;1.25;;
25439;SDS011;13365;52.208;5.488;2024-01-07T14:23:43;2.83;;;1.10;;
25439;SDS011;13365;52.208;5.488;2024-01-07T14:26:08;2.50;;;1.13;;
25439;SDS011;13365;52.208;5.488;2024-01-07T14:28:34;3.53;;;1.13;;